Time;durP1;ratioP1;P1;durP2;ratioP2;P2;SDS_P1;SDS_P2;PMS_P1;PMS_P2;Temp;Humidity;BMP_temperature;BMP_pressure;BME280_temperature;BME280_humidity;BME280_pressure;Samples;Min_cycle;Max_cycle;Signal;HPM_P1;HPM_P2
2022/12/20 00:00:04;;;;;;;23.20;6.85;;;12.30;99.90;;;11.54;100.00;100791.94;4169046;28;20079;-69
2022/12/20 00:02:05;;;;;;;21.08;4.93;;;12.40;99.90;;;11.40;100.00;100781.16;4167451;28;20100;-69
2022/12/20 00:04:06;;;;;;;20.13;5.38;;;12.30;99.90;;;11.48;100.00;100787.28;4168454;28;20481;-69
2022/12/20 00:06:07;;;;;;;23.02;7.38;;;12.30;99.90;;;11.50;100.00;100792.41;4167945;28;20143;-69
2022/12/20 00:08:09;;;;;;;20.83;6.90;;;12.30;99.90;;;11.55;100.00;100798.03;4167694;28;20399;-69
2022/12/20 00:10:12;;;;;;;22.85;5.85;;;12.40;99.90;;;11.56;100.00;100789.13;4167498;28;20021;-69
2022/12/20 00:12:13;;;;;;;22.48;6.35;;;12.40;99.90;;;11.62;100.00;100801.69;4168614;28;20079;-69
2022/12/20 00:14:14;;;;;;;21.15;6.30;;;12.40;99.90;;;11.67;100.00;100799.41;4168452;28;20491;-69
2022/12/20 00:16:21;;;;;;;19.00;5.80;;;12.50;99.90;;;11.64;100.00;100795.28;4168292;28;20080;-69
2022/12/20 00:18:22;;;;;;;26.30;6.78;;;12.50;99.90;;;11.65;100.00;100796.06;4183653;28;20025;-69
2022/12/20 00:20:25;;;;;;;25.20;7.45;;;12.50;99.90;;;11.64;100.00;100799.72;4168547;28;20026;-69
2022/12/20 00:22:25;;;;;;;17.48;5.68;;;12.50;99.90;;;11.70;100.00;100785.06;4167074;28;20481;-69
2022/12/20 00:24:26;;;;;;;26.77;7.15;;;12.50;99.90;;;11.71;100.00;100789.38;4168573;28;20026;-69
2022/12/20 00:26:30;;;;;;;23.42;6.72;;;12.50;99.90;;;11.68;100.00;100801.03;4168472;28;20026;-69
2022/12/20 00:28:33;;;;;;;22.85;6.65;;;12.50;99.90;;;11.70;100.00;100788.53;4168558;28;20030;-69
2022/12/20 00:30:35;;;;;;;20.13;6.22;;;12.50;99.90;;;11.68;100.00;100785.19;4168487;28;20121;-69
2022/12/20 00:32:36;;;;;;;27.05;7.43;;;12.50;99.90;;;11.66;100.00;100793.28;4167559;28;20025;-69
2022/12/20 00:34:37;;;;;;;34.55;7.00;;;12.50;99.90;;;11.61;100.00;100794.75;4168519;28;20080;-69
2022/12/20 00:36:39;;;;;;;25.00;7.13;;;12.50;99.90;;;11.59;100.00;100808.13;4166910;28;20068;-69
2022/12/20 00:38:40;;;;;;;26.73;7.15;;;12.50;99.90;;;11.59;100.00;100802.00;4167213;28;20059;-69
2022/12/20 00:40:41;;;;;;;30.48;6.65;;;12.50;99.90;;;11.65;100.00;100801.34;4168506;28;20033;-69
2022/12/20 00:42:42;;;;;;;21.90;6.53;;;12.50;99.90;;;11.57;100.00;100801.34;4168543;28;20022;-69
2022/12/20 00:44:43;;;;;;;21.88;6.35;;;12.40;99.90;;;11.59;100.00;100794.06;4168385;28;20025;-69
2022/12/20 00:46:44;;;;;;;30.40;8.20;;;12.40;99.90;;;11.65;100.00;100802.19;4168278;28;20025;-69
2022/12/20 00:48:45;;;;;;;29.25;7.30;;;12.50;99.90;;;11.59;100.00;100780.88;4168539;28;20370;-69
2022/12/20 00:50:46;;;;;;;24.05;7.15;;;12.50;99.90;;;11.60;100.00;100799.22;4167144;28;20529;-69
2022/12/20 00:52:47;;;;;;;29.88;8.10;;;12.50;99.90;;;11.56;100.00;100787.31;4168374;28;20033;-69
2022/12/20 00:54:48;;;;;;;27.73;7.43;;;12.40;99.90;;;11.58;100.00;100795.09;4155569;28;20032;-69
2022/12/20 00:56:49;;;;;;;26.65;7.18;;;12.40;99.90;;;11.63;100.00;100800.69;4155391;28;20038;-69
2022/12/20 00:58:52;;;;;;;26.70;6.95;;;12.40;99.90;;;11.58;100.00;100795.09;4183494;28;20021;-69
2022/12/20 01:00:53;;;;;;;29.65;7.22;;;12.40;99.90;;;11.58;100.00;100784.50;4168409;28;20108;-69
2022/12/20 01:02:54;;;;;;;27.55;7.05;;;12.40;99.90;;;11.58;100.00;100785.34;4167082;28;20076;-69
2022/12/20 01:04:55;;;;;;;27.30;7.10;;;12.40;99.90;;;11.56;100.00;100778.53;4168373;28;20033;-69
2022/12/20 01:06:56;;;;;;;24.75;8.32;;;12.40;99.90;;;11.56;100.00;100775.91;4168125;28;20558;-69
2022/12/20 01:08:57;;;;;;;25.73;6.60;;;12.40;99.90;;;11.56;100.00;100775.91;4166980;28;20409;-69
2022/12/20 01:11:02;;;;;;;20.92;7.80;;;12.40;99.90;;;11.60;100.00;100783.38;4167081;28;20022;-69
2022/12/20 01:13:03;;;;;;;27.92;6.65;;;12.40;99.90;;;11.59;100.00;100778.22;4168334;28;20547;-70
2022/12/20 01:15:06;;;;;;;35.70;8.13;;;12.40;99.90;;;11.59;100.00;100771.13;4168045;28;20021;-69
2022/12/20 01:17:07;;;;;;;27.30;7.07;;;12.50;99.90;;;11.67;100.00;100783.56;4169942;28;20033;-70
2022/12/20 01:19:11;;;;;;;29.33;6.30;;;12.50;99.90;;;11.65;100.00;100774.94;4171095;28;20029;-69
2022/12/20 01:21:15;;;;;;;34.03;7.68;;;12.50;99.90;;;11.64;100.00;100774.13;4169851;28;20550;-69
2022/12/20 01:23:16;;;;;;;25.75;7.22;;;12.50;99.90;;;11.61;100.00;100776.28;4169793;28;20018;-69
2022/12/20 01:25:17;;;;;;;29.15;6.63;;;12.50;99.90;;;11.64;100.00;100768.84;4171090;28;20022;-69
2022/12/20 01:27:17;;;;;;;25.10;7.32;;;12.50;99.90;;;11.60;100.00;100764.03;4171192;28;20040;-69
2022/12/20 01:29:18;;;;;;;26.23;8.00;;;12.50;99.90;;;11.59;100.00;100765.84;4170000;28;20591;-69
2022/12/20 01:31:20;;;;;;;35.33;6.85;;;12.40;99.90;;;11.60;100.00;100762.22;4171308;28;20052;-69
2022/12/20 01:33:22;;;;;;;26.50;7.45;;;12.50;99.90;;;11.59;100.00;100765.00;4169389;28;20485;-69
2022/12/20 01:35:23;;;;;;;24.42;7.10;;;12.50;99.90;;;11.59;100.00;100765.00;4169574;28;20021;-69
2022/12/20 01:37:23;;;;;;;30.27;7.32;;;12.50;99.90;;;11.60;100.00;100769.31;4170705;28;20084;-69
2022/12/20 01:39:24;;;;;;;33.13;7.15;;;12.50;99.90;;;11.62;100.00;100764.69;4170835;28;20529;-69
2022/12/20 01:41:27;;;;;;;27.48;7.88;;;12.50;99.90;;;11.64;100.00;100776.78;4170772;28;20026;-69
2022/12/20 01:43:55;;;;;;;30.75;8.20;;;12.50;99.90;;;11.61;100.00;100776.28;4169544;28;20037;-69
2022/12/20 01:45:55;;;;;;;24.00;6.85;;;12.50;99.90;;;11.64;100.00;100783.88;4169515;28;20116;-69
2022/12/20 01:47:59;;;;;;;33.13;8.48;;;12.50;99.90;;;11.68;100.00;100773.81;4169551;28;20022;-69
2022/12/20 01:50:03;;;;;;;24.85;6.97;;;12.50;99.90;;;11.65;100.00;100781.06;4169522;28;20032;-69
2022/12/20 01:52:07;;;;;;;35.22;8.90;;;12.50;99.90;;;11.73;100.00;100784.75;4169473;28;20052;-69
2022/12/20 01:54:18;;;;;;;31.08;7.18;;;12.50;99.90;;;11.73;100.00;100787.38;4163483;28;20022;-69
2022/12/20 01:56:19;;;;;;;31.33;7.50;;;12.50;99.90;;;11.68;100.00;100779.09;4169399;28;20094;-69
2022/12/20 01:58:21;;;;;;;32.83;7.80;;;12.50;99.90;;;11.69;100.00;100792.13;4169896;28;20065;-69
2022/12/20 02:00:23;;;;;;;30.60;8.00;;;12.50;99.90;;;11.67;100.00;100783.56;4169465;28;20029;-69
2022/12/20 02:02:24;;;;;;;36.90;8.68;;;12.50;99.90;;;11.65;100.00;100781.06;4170559;28;20607;-69
2022/12/20 02:04:24;;;;;;;34.22;8.48;;;12.50;99.90;;;11.64;100.00;100789.16;4170485;28;20014;-69
2022/12/20 02:06:26;;;;;;;28.50;8.52;;;12.50;99.90;;;11.63;100.00;100790.97;4170107;28;20025;-69
2022/12/20 02:08:27;;;;;;;34.30;8.23;;;12.50;99.90;;;11.63;100.00;100793.59;4168998;28;20018;-69
2022/12/20 02:11:07;;;;;;;34.15;8.02;;;12.50;99.90;;;11.64;100.00;100792.63;4170400;28;20034;-69
2022/12/20 02:13:25;;;;;;;34.10;7.75;;;12.50;99.90;;;11.63;100.00;100787.50;4170763;28;20025;-69
2022/12/20 02:15:38;;;;;;;30.25;8.05;;;12.50;99.90;;;11.62;100.00;100788.47;4168891;28;20458;-69
2022/12/20 02:18:21;;;;;;;29.88;7.18;;;12.50;99.90;;;11.62;100.00;100775.25;4170186;28;20045;-69
2022/12/20 02:21:05;;;;;;;29.88;6.30;;;12.50;99.90;;;11.65;100.00;100780.22;4168906;28;20046;-69
2022/12/20 02:23:45;;;;;;;33.13;7.82;;;12.50;99.90;;;11.62;100.00;100785.81;4170164;28;20026;-69
2022/12/20 02:26:27;;;;;;;31.77;7.50;;;12.50;99.90;;;11.61;100.00;100786.84;4169942;28;20021;-69
2022/12/20 02:28:58;;;;;;;37.40;7.10;;;12.50;99.90;;;11.57;100.00;100778.41;4151580;28;20033;-69
2022/12/20 02:31:06;;;;;;;29.30;7.35;;;12.50;99.90;;;11.58;100.00;100780.06;4170167;28;20043;-69
2022/12/20 02:33:13;;;;;;;33.28;8.23;;;12.40;99.90;;;11.56;100.00;100774.09;4168786;28;20081;-69
2022/12/20 02:35:22;;;;;;;38.80;9.43;;;12.40;99.90;;;11.57;100.00;100769.66;4168784;28;20017;-69
2022/12/20 02:37:23;;;;;;;27.90;7.53;;;12.40;99.90;;;11.58;100.00;100773.94;4157014;28;20562;-69
2022/12/20 02:39:28;;;;;;;35.42;7.15;;;12.40;99.90;;;11.61;100.00;100784.19;4169880;28;20029;-69
2022/12/20 02:41:38;;;;;;;36.08;7.07;;;12.40;99.90;;;11.58;100.00;100787.16;4168522;28;20112;-69
2022/12/20 02:46:03;;;;;;;27.20;7.13;;;12.40;99.90;;;11.66;100.00;100792.47;4168892;28;20092;-69
2022/12/20 02:48:09;;;;;;;33.83;7.28;;;12.50;99.90;;;11.59;100.00;100778.22;4168657;28;20068;-69
2022/12/20 02:50:10;;;;;;;28.85;7.07;;;12.50;99.90;;;11.66;100.00;100787.16;4168482;28;20025;-69
2022/12/20 02:52:14;;;;;;;26.33;6.18;;;12.50;99.90;;;11.65;100.00;100774.94;4168187;28;20033;-69
2022/12/20 02:54:16;;;;;;;27.13;7.43;;;12.50;99.90;;;11.66;100.00;100771.31;4159754;28;20033;-69
2022/12/20 02:56:34;;;;;;;26.92;5.80;;;12.50;99.90;;;11.64;100.00;100774.13;4164141;28;20052;-69
2022/12/20 02:59:00;;;;;;;30.77;6.25;;;12.50;99.90;;;11.75;100.00;100780.13;4169849;28;20037;-70
2022/12/20 03:01:09;;;;;;;40.40;6.25;;;12.50;99.90;;;11.71;100.00;100784.88;4169503;28;20029;-69
2022/12/20 03:03:22;;;;;;;34.47;6.05;;;12.50;99.90;;;11.74;100.00;100775.84;4168224;28;20025;-69
2022/12/20 03:05:26;;;;;;;26.10;5.47;;;12.60;99.90;;;11.74;100.00;100776.63;4169527;28;20033;-69
2022/12/20 03:07:28;;;;;;;31.23;5.95;;;12.60;99.90;;;11.81;100.00;100788.22;4168072;28;20061;-69
2022/12/20 03:09:31;;;;;;;23.55;6.55;;;12.60;99.90;;;11.78;100.00;100782.44;4168262;28;20040;-69
2022/12/20 03:11:32;;;;;;;28.65;5.78;;;12.60;99.90;;;11.81;100.00;100787.38;4168444;28;20096;-69
2022/12/20 03:13:33;;;;;;;25.23;5.65;;;12.60;99.90;;;11.84;100.00;100793.19;4169646;28;20029;-69
2022/12/20 03:15:34;;;;;;;17.50;5.90;;;12.60;99.90;;;11.83;100.00;100796.81;4168996;28;20053;-69
2022/12/20 03:17:36;;;;;;;28.83;6.13;;;12.70;99.90;;;11.84;100.00;100789.72;4169088;28;20037;-69
2022/12/20 03:19:37;;;;;;;26.88;5.82;;;12.70;99.90;;;11.87;100.00;100778.81;4168350;28;20028;-69
2022/12/20 03:21:37;;;;;;;29.70;5.88;;;12.70;99.90;;;11.86;100.00;100783.25;4167880;28;20029;-69
2022/12/20 03:23:38;;;;;;;25.20;5.65;;;12.70;99.90;;;11.89;100.00;100788.22;4168026;28;20033;-69
2022/12/20 03:25:39;;;;;;;21.98;5.95;;;12.70;99.90;;;11.82;100.00;100781.97;4167824;28;20093;-69
2022/12/20 03:27:40;;;;;;;25.17;6.03;;;12.70;99.90;;;11.89;100.00;100785.59;4169269;28;20065;-69
2022/12/20 03:29:41;;;;;;;25.65;6.20;;;12.70;99.90;;;11.87;100.00;100782.28;4169292;28;20029;-69
2022/12/20 03:31:42;;;;;;;16.35;5.13;;;12.70;99.90;;;11.86;100.00;100780.63;4169632;28;20021;-69
2022/12/20 03:33:43;;;;;;;26.23;6.32;;;12.70;99.90;;;11.83;100.00;100780.13;4169102;28;20468;-69
2022/12/20 03:35:45;;;;;;;36.75;7.43;;;12.70;99.90;;;11.85;100.00;100776.34;4167595;28;20033;-69
2022/12/20 03:37:46;;;;;;;29.00;6.25;;;12.70;99.90;;;11.86;100.00;100785.91;4167661;28;20032;-69
2022/12/20 03:39:47;;;;;;;32.67;6.78;;;12.70;99.90;;;11.84;100.00;100789.72;4168992;28;20026;-69
2022/12/20 03:41:48;;;;;;;25.15;5.85;;;12.70;99.90;;;11.83;100.00;100791.53;4168531;28;20036;-69
2022/12/20 03:43:49;;;;;;;22.60;7.03;;;12.70;99.90;;;11.84;100.00;100785.25;4154530;28;20036;-69
2022/12/20 03:45:50;;;;;;;26.05;7.25;;;12.70;99.90;;;11.85;100.00;100797.50;4168852;28;20400;-69
2022/12/20 03:47:51;;;;;;;23.98;7.10;;;12.70;99.90;;;11.84;100.00;100784.44;4168863;28;20033;-69
2022/12/20 03:49:51;;;;;;;25.02;7.70;;;12.70;99.90;;;11.83;100.00;100793.34;4168982;28;20052;-69
2022/12/20 03:51:53;;;;;;;27.05;7.13;;;12.70;99.90;;;11.81;100.00;100790.88;4167499;28;20111;-69
2022/12/20 03:53:54;;;;;;;32.65;7.25;;;12.70;99.90;;;11.79;100.00;100782.28;4163136;28;20028;-69
2022/12/20 03:55:55;;;;;;;22.95;6.85;;;12.70;99.90;;;11.82;100.00;100794.34;4165839;28;20026;-69
2022/12/20 03:57:56;;;;;;;23.08;7.22;;;12.70;99.90;;;11.81;100.00;100790.88;4168700;28;20496;-69
2022/12/20 03:59:57;;;;;;;31.00;8.77;;;12.60;99.90;;;11.80;100.00;100788.41;4167476;28;20025;-69
2022/12/20 04:01:58;;;;;;;20.63;7.10;;;12.60;99.90;;;11.77;100.00;100778.97;4167561;28;20026;-69
2022/12/20 04:03:59;;;;;;;25.95;7.88;;;12.60;99.90;;;11.77;100.00;100789.53;4167260;28;20076;-69
2022/12/20 04:06:00;;;;;;;32.83;7.32;;;12.60;99.90;;;11.79;100.00;100779.66;4167329;28;20021;-69
2022/12/20 04:08:01;;;;;;;33.75;9.55;;;12.60;99.90;;;11.77;100.00;100788.72;4167354;28;20030;-69
2022/12/20 04:10:03;;;;;;;28.83;9.18;;;12.60;99.90;;;11.76;100.00;100792.34;4168742;28;20041;-69
2022/12/20 04:12:04;;;;;;;28.88;7.78;;;12.60;99.90;;;11.78;100.00;100788.53;4151042;28;20029;-69
2022/12/20 04:14:05;;;;;;;33.72;8.57;;;12.60;99.90;;;11.76;100.00;100792.34;4168475;28;20558;-69
2022/12/20 04:16:06;;;;;;;28.88;8.00;;;12.60;99.90;;;11.76;100.00;100797.63;4168322;28;20492;-69
2022/12/20 04:18:07;;;;;;;23.92;7.05;;;12.60;99.90;;;11.76;100.00;100798.47;4168627;28;20093;-69
2022/12/20 04:20:19;;;;;;;32.03;8.18;;;12.60;99.90;;;11.74;100.00;100792.50;4168776;28;20035;-69
2022/12/20 04:22:20;;;;;;;28.63;7.82;;;12.60;99.90;;;11.72;100.00;100801.56;4168281;28;20025;-69
2022/12/20 04:24:21;;;;;;;24.05;6.75;;;12.60;99.90;;;11.78;100.00;100807.06;4167520;28;20022;-69
2022/12/20 04:26:22;;;;;;;24.50;7.60;;;12.60;99.90;;;11.79;100.00;100810.53;4168704;28;20053;-69
2022/12/20 04:28:23;;;;;;;27.35;7.47;;;12.60;99.90;;;11.81;100.00;100798.78;4167378;28;20029;-69
2022/12/20 04:30:24;;;;;;;30.83;6.93;;;12.60;99.90;;;11.81;100.00;100800.59;4168491;28;20030;-69
2022/12/20 04:32:25;;;;;;;28.98;7.85;;;12.60;99.90;;;11.83;100.00;100799.44;4168387;28;20027;-69
2022/12/20 04:34:26;;;;;;;22.08;6.47;;;12.60;99.90;;;11.83;100.00;100804.72;4168668;28;20032;-69
2022/12/20 04:36:27;;;;;;;30.10;7.13;;;12.60;99.90;;;11.80;100.00;100805.06;4168287;28;20393;-69
2022/12/20 04:38:28;;;;;;;32.95;7.63;;;12.60;99.90;;;11.85;100.00;100812.53;4167215;28;20026;-69
2022/12/20 04:40:29;;;;;;;16.55;6.53;;;12.60;99.90;;;11.87;100.00;100805.25;4167165;28;20389;-69
2022/12/20 04:42:30;;;;;;;26.05;6.78;;;12.70;99.90;;;11.86;100.00;100801.78;4168508;28;20060;-70
2022/12/20 04:44:31;;;;;;;21.63;6.07;;;12.70;99.90;;;11.82;100.00;100797.81;4168482;28;20040;-69
2022/12/20 04:46:32;;;;;;;20.13;6.50;;;12.60;99.90;;;11.84;100.00;100798.47;4168310;28;20033;-69
2022/12/20 04:48:32;;;;;;;24.83;6.68;;;12.70;99.90;;;11.84;100.00;100795.81;4168272;28;20033;-69
2022/12/20 04:50:33;;;;;;;21.65;5.95;;;12.70;99.90;;;11.80;100.00;100805.06;4169188;28;20033;-69
2022/12/20 04:54:53;;;;;;;21.48;6.32;;;12.60;99.90;;;11.82;100.00;100797.81;4161494;28;20033;-69
2022/12/20 04:56:54;;;;;;;20.90;6.53;;;12.70;99.90;;;11.81;100.00;100795.31;4170319;28;20029;-69
2022/12/20 04:58:57;;;;;;;21.17;5.68;;;12.60;99.90;;;11.84;100.00;100795.81;4171693;28;20103;-69
2022/12/20 05:00:58;;;;;;;21.10;6.03;;;12.60;99.90;;;11.82;100.00;100804.91;4170202;28;20022;-69
2022/12/20 05:03:00;;;;;;;20.08;6.53;;;12.70;99.90;;;11.81;100.00;100793.50;4171260;28;20547;-69
2022/12/20 05:05:01;;;;;;;21.90;5.38;;;12.60;99.90;;;11.82;100.00;100797.00;4171372;28;20100;-69
2022/12/20 05:07:02;;;;;;;15.38;4.97;;;12.60;99.90;;;11.79;100.00;100795.50;4171182;28;20108;-69
2022/12/20 05:09:03;;;;;;;17.10;5.50;;;12.60;99.90;;;11.80;100.00;100804.25;4170268;28;20103;-69
2022/12/20 05:11:05;;;;;;;22.02;5.63;;;12.60;99.90;;;11.79;100.00;100792.84;4170112;28;20057;-69
2022/12/20 05:13:06;;;;;;;25.92;6.25;;;12.60;99.90;;;11.81;100.00;100798.78;4171412;28;20396;-69
2022/12/20 05:15:08;;;;;;;19.42;5.63;;;12.60;99.90;;;11.78;100.00;100791.19;4170885;28;20396;-69
2022/12/20 05:17:09;;;;;;;18.10;5.53;;;12.60;99.90;;;11.77;100.00;100781.59;4169787;28;20022;-69
2022/12/20 05:19:10;;;;;;;21.58;6.72;;;12.60;99.90;;;11.79;100.00;100781.44;4171191;28;20024;-69
2022/12/20 05:28:02;;;;;;;14.65;4.38;;;12.60;99.90;;;11.73;100.00;100774.16;4170147;28;20041;-69
2022/12/20 05:30:04;;;;;;;16.25;5.05;;;12.60;99.90;;;11.75;100.00;100780.13;4169778;28;20021;-70
2022/12/20 05:32:05;;;;;;;17.50;4.97;;;12.60;99.90;;;11.72;100.00;100783.09;4171323;28;20462;-69
2022/12/20 05:34:06;;;;;;;18.50;4.53;;;12.60;99.90;;;11.73;100.00;100782.94;4170452;28;20056;-70
2022/12/20 05:36:08;;;;;;;9.90;4.45;;;12.60;99.90;;;11.71;100.00;100771.69;4169316;28;20036;-69
2022/12/20 05:38:09;;;;;;;16.27;4.72;;;12.60;99.90;;;11.70;100.00;100771.84;4170927;28;20095;-69
2022/12/20 05:40:10;;;;;;;12.88;4.88;;;12.60;99.90;;;11.75;100.00;100775.66;4170810;28;20429;-69
2022/12/20 05:42:11;;;;;;;16.17;4.18;;;12.60;99.90;;;11.77;100.00;100784.25;4169717;28;20520;-69
2022/12/20 05:44:12;;;;;;;17.20;4.88;;;12.60;99.90;;;11.73;100.00;100777.66;4170885;28;20029;-69
2022/12/20 05:46:13;;;;;;;16.45;5.60;;;12.60;99.90;;;11.73;100.00;100779.47;4170673;28;20018;-69
2022/12/20 05:48:15;;;;;;;11.98;5.22;;;12.60;99.90;;;11.67;100.00;100762.41;4171202;28;20459;-69
2022/12/20 05:50:16;;;;;;;14.00;4.88;;;12.60;99.90;;;11.75;100.00;100780.13;4169598;28;20041;-69
2022/12/20 05:52:17;;;;;;;15.50;5.07;;;12.60;99.90;;;11.72;100.00;100785.72;4169346;28;20033;-69
2022/12/20 05:54:18;;;;;;;16.33;5.15;;;12.60;99.90;;;11.75;100.00;100788.03;4160432;28;20084;-69
2022/12/20 05:56:19;;;;;;;19.48;5.50;;;12.60;99.90;;;11.74;100.00;100792.50;4167731;28;20032;-69
2022/12/20 05:58:21;;;;;;;11.60;4.82;;;12.60;99.90;;;11.72;100.00;100794.47;4170122;28;20053;-69
2022/12/20 06:00:22;;;;;;;16.23;5.05;;;12.60;99.90;;;11.72;100.00;100794.47;4170622;28;20044;-69
2022/12/20 06:02:23;;;;;;;19.15;4.90;;;12.60;99.90;;;11.73;100.00;100792.66;4170272;28;20085;-69
2022/12/20 06:04:23;;;;;;;9.50;4.20;;;12.60;99.90;;;11.73;100.00;100785.56;4169015;28;20029;-69
2022/12/20 06:06:24;;;;;;;15.80;5.10;;;12.60;99.90;;;11.73;100.00;100788.22;4170055;28;20018;-69
2022/12/20 06:08:26;;;;;;;16.10;4.80;;;12.60;99.90;;;11.75;100.00;100796.81;4170494;28;20041;-69
2022/12/20 06:10:27;;;;;;;18.60;4.05;;;12.60;99.90;;;11.74;100.00;100795.13;4169097;28;20022;-69
2022/12/20 06:12:27;;;;;;;13.85;4.40;;;12.60;99.90;;;11.75;100.00;100795.97;4169173;28;20528;-69
2022/12/20 06:14:28;;;;;;;17.63;4.57;;;12.60;99.90;;;11.76;100.00;100798.47;4170100;28;20504;-69
2022/12/20 06:16:30;;;;;;;15.30;4.78;;;12.60;99.90;;;11.77;100.00;100794.00;4170054;28;20511;-69
2022/12/20 06:18:31;;;;;;;13.93;4.53;;;12.60;99.90;;;11.76;100.00;100795.00;4170245;28;20025;-69
2022/12/20 06:20:33;;;;;;;16.00;4.63;;;12.60;99.90;;;11.76;100.00;100787.91;4169993;28;20029;-69
2022/12/20 06:22:36;;;;;;;13.70;4.65;;;12.60;99.90;;;11.75;100.00;100780.13;4168884;28;20108;-69
2022/12/20 06:24:38;;;;;;;17.25;5.22;;;12.60;99.90;;;11.75;100.00;100783.59;4152106;28;20030;-69
2022/12/20 06:26:39;;;;;;;13.90;4.85;;;12.60;99.90;;;11.75;100.00;100785.41;4185532;28;20024;-69
2022/12/20 06:28:41;;;;;;;22.88;5.20;;;12.60;99.90;;;11.78;100.00;100787.72;4168771;28;20101;-69
2022/12/20 06:30:42;;;;;;;22.58;6.10;;;12.60;99.90;;;11.75;100.00;100770.38;4168562;28;20030;-69
2022/12/20 06:32:43;;;;;;;15.77;5.40;;;12.60;99.90;;;11.74;100.00;100776.63;4170064;28;20451;-69
2022/12/20 06:34:44;;;;;;;19.45;5.63;;;12.60;99.90;;;11.77;100.00;100772.88;4170004;28;20029;-69
2022/12/20 06:36:45;;;;;;;22.67;5.93;;;12.60;99.90;;;11.77;100.00;100780.81;4168562;28;20101;-69
2022/12/20 06:38:47;;;;;;;20.67;6.57;;;12.60;99.90;;;11.77;100.00;100780.81;4169715;28;20116;-69
2022/12/20 06:40:48;;;;;;;17.75;5.88;;;12.60;99.90;;;11.76;100.00;100773.84;4185176;28;20021;-69
2022/12/20 06:42:49;;;;;;;21.27;6.20;;;12.60;99.90;;;11.79;100.00;100771.72;4169888;28;20033;-69
2022/12/20 06:44:50;;;;;;;30.48;6.88;;;12.60;99.90;;;11.78;100.00;100777.97;4169719;28;20033;-69
2022/12/20 06:46:51;;;;;;;23.90;7.13;;;12.60;99.90;;;11.78;100.00;100774.50;4169522;28;20025;-69
2022/12/20 06:48:52;;;;;;;23.40;7.43;;;12.60;99.90;;;11.77;100.00;100771.03;4169684;28;20036;-69
2022/12/20 06:50:53;;;;;;;29.45;8.43;;;12.60;99.90;;;11.75;100.00;100770.38;4168237;28;20421;-69
2022/12/20 06:52:54;;;;;;;25.92;7.95;;;12.60;99.90;;;11.77;100.00;100780.81;4168430;28;20064;-69
2022/12/20 06:54:55;;;;;;;27.38;7.40;;;12.60;99.90;;;11.80;100.00;100772.53;4157764;28;20053;-69
2022/12/20 06:56:55;;;;;;;32.25;8.80;;;12.60;99.90;;;11.80;100.00;100778.63;4169646;28;20033;-69
2022/12/20 06:58:56;;;;;;;24.33;7.05;;;12.60;99.90;;;11.82;100.00;100787.25;4168436;28;20535;-69
2022/12/20 07:00:57;;;;;;;27.55;6.93;;;12.60;99.90;;;11.81;100.00;100774.19;4169770;28;20032;-69
2022/12/20 07:02:58;;;;;;;23.10;6.90;;;12.60;99.90;;;11.81;100.00;100771.53;4169406;28;20493;-69
2022/12/20 07:04:59;;;;;;;22.60;6.55;;;12.70;99.90;;;11.83;100.00;100773.03;4168465;28;20100;-69
2022/12/20 07:07:00;;;;;;;24.98;7.32;;;12.70;99.90;;;11.81;100.00;100771.53;4168138;28;20033;-69
2022/12/20 07:09:01;;;;;;;24.05;5.93;;;12.70;99.90;;;11.81;100.00;100772.38;4168393;28;20037;-69
2022/12/20 07:11:04;;;;;;;32.70;6.65;;;12.70;99.90;;;11.83;100.00;100773.03;4168122;28;20023;-69
2022/12/20 07:13:05;;;;;;;28.08;7.47;;;12.70;99.90;;;11.85;100.00;100775.50;4168657;28;20057;-69
2022/12/20 07:15:07;;;;;;;28.50;7.70;;;12.70;99.90;;;11.82;100.00;100771.38;4168760;28;20032;-69
2022/12/20 07:17:09;;;;;;;16.83;6.25;;;12.70;99.90;;;11.83;100.00;100774.81;4168117;28;20018;-69
2022/12/20 07:19:12;;;;;;;17.35;6.57;;;12.70;99.90;;;11.86;100.00;100772.69;4169253;28;20032;-69
2022/12/20 07:21:15;;;;;;;21.88;6.65;;;12.70;99.90;;;11.86;100.00;100772.69;4169233;28;20508;-68
2022/12/20 07:23:17;;;;;;;15.17;6.00;;;12.70;99.90;;;11.85;100.00;100770.22;4169278;28;20025;-69
2022/12/20 07:25:18;;;;;;;24.17;5.90;;;12.70;99.90;;;11.84;100.00;100765.91;4167971;28;20282;-69
2022/12/20 07:27:19;;;;;;;15.95;5.50;;;12.70;99.90;;;11.86;100.00;100767.41;4168681;28;20048;-69
2022/12/20 07:29:20;;;;;;;23.35;7.13;;;12.70;99.90;;;11.85;100.00;100771.06;4169217;28;20029;-70
2022/12/20 07:31:21;;;;;;;16.15;6.88;;;12.70;99.90;;;11.84;100.00;100768.56;4167839;28;20061;-69
2022/12/20 07:33:22;;;;;;;20.73;7.00;;;12.70;99.90;;;11.83;100.00;100770.38;4167979;28;20030;-70
2022/12/20 07:35:23;;;;;;;20.63;7.30;;;12.70;99.90;;;11.84;100.00;100769.41;4168822;28;20504;-69
2022/12/20 07:37:23;;;;;;;21.75;7.50;;;12.70;99.90;;;11.79;100.00;100771.72;4169172;28;20033;-70
2022/12/20 07:39:25;;;;;;;24.02;7.60;;;12.70;99.90;;;11.77;100.00;100763.09;4167976;28;20025;-70
2022/12/20 07:41:26;;;;;;;33.80;9.10;;;12.60;99.90;;;11.77;100.00;100765.75;4168955;28;20026;-70
2022/12/20 07:43:27;;;;;;;28.45;9.73;;;12.70;99.90;;;11.77;100.00;100773.66;4167563;28;20083;-69
2022/12/20 07:45:28;;;;;;;31.50;9.40;;;12.60;99.90;;;11.77;100.00;100763.09;4168934;28;20028;-69
2022/12/20 07:47:29;;;;;;;29.17;9.45;;;12.60;99.90;;;11.77;100.00;100768.38;4167829;28;20035;-69
2022/12/20 07:49:30;;;;;;;28.33;11.38;;;12.60;99.90;;;11.75;100.00;100762.44;4167599;28;20025;-69
2022/12/20 07:51:37;;;;;;;37.55;13.13;;;12.60;99.90;;;11.77;100.00;100765.75;4168509;28;20032;-69
2022/12/20 07:53:46;;;;;;;48.20;12.90;;;12.60;99.90;;;11.77;100.00;100762.31;4167788;28;20025;-69
2022/12/20 07:55:48;;;;;;;40.45;12.85;;;12.60;99.90;;;11.74;100.00;100762.63;4167586;28;20033;-70
2022/12/20 07:57:55;;;;;;;38.28;12.77;;;12.60;99.90;;;11.74;100.00;100765.25;4167352;28;20156;-69
2022/12/20 08:00:00;;;;;;;35.22;12.10;;;12.60;99.90;;;11.72;100.00;100760.13;4167381;28;20516;-70
2022/12/20 08:02:01;;;;;;;42.47;12.35;;;12.60;99.90;;;11.65;100.00;100754.63;4167526;28;20057;-69
2022/12/20 08:04:09;;;;;;;32.70;12.48;;;12.60;99.90;;;11.70;100.00;100761.28;4167241;28;20546;-69
2022/12/20 08:06:11;;;;;;;39.45;11.38;;;12.60;99.90;;;11.68;100.00;100762.22;4164512;28;20033;-69
2022/12/20 08:08:12;;;;;;;35.42;12.00;;;12.60;99.90;;;11.62;100.00;100759.41;4167380;28;20122;-68
2022/12/20 08:10:18;;;;;;;32.65;11.02;;;12.50;99.90;;;11.66;100.00;100761.56;4167517;28;20025;-69
2022/12/20 08:12:20;;;;;;;45.22;12.07;;;12.50;99.90;;;11.68;100.00;100757.97;4167506;28;20096;-69
2022/12/20 08:14:21;;;;;;;28.50;10.45;;;12.50;99.90;;;11.68;100.00;100769.31;4167210;28;20018;-70
2022/12/20 08:16:22;;;;;;;41.97;9.73;;;12.60;99.90;;;11.66;100.00;100766.03;4168458;28;20055;-69
2022/12/20 08:18:23;;;;;;;30.33;10.13;;;12.50;99.90;;;11.67;100.00;100767.69;4167259;28;20493;-69
2022/12/20 08:20:24;;;;;;;39.42;9.88;;;12.50;99.90;;;11.68;100.00;100769.31;4168393;28;20029;-69
2022/12/20 08:22:25;;;;;;;33.17;9.77;;;12.50;99.90;;;11.59;100.00;100759.72;4168480;28;20029;-69
2022/12/20 08:24:26;;;;;;;27.13;8.00;;;12.50;99.90;;;11.63;100.00;100761.91;4168118;28;20029;-69
2022/12/20 08:26:27;;;;;;;41.60;9.52;;;12.50;99.90;;;11.66;100.00;100761.56;4170877;28;20021;-69
2022/12/20 08:28:27;;;;;;;35.30;8.77;;;12.50;99.90;;;11.66;100.00;100771.31;4170746;28;20029;-69
2022/12/20 08:30:29;;;;;;;34.97;7.78;;;12.50;99.90;;;11.66;100.00;100760.75;4172137;28;20037;-69
2022/12/20 08:32:29;;;;;;;30.75;8.20;;;12.50;99.90;;;11.64;100.00;100765.38;4172110;28;20040;-69